Time;durP1;ratioP1;P1;durP2;ratioP2;P2;SDS_P1;SDS_P2;PMS_P1;PMS_P2;Temp;Humidity;BMP_temperature;BMP_pressure;BME280_temperature;BME280_humidity;BME280_pressure;Samples;Min_cycle;Max_cycle;Signal;HPM_P1;HPM_P2
2023/03/24 00:01:16;;;;;;;0.50;0.50;;;12.50;99.90;12.60;99653.00;;;;4932401;28;89927;-64
2023/03/24 00:03:44;;;;;;;2.17;0.87;;;12.50;99.90;12.60;99646.00;;;;4933958;28;87543;-64
2023/03/24 00:06:12;;;;;;;1.37;0.87;;;12.60;99.90;12.70;99654.00;;;;4933644;28;89385;-64
2023/03/24 00:08:40;;;;;;;0.53;0.53;;;12.60;99.90;12.70;99647.00;;;;4930762;28;89464;-63
2023/03/24 00:11:08;;;;;;;0.60;0.60;;;12.70;99.90;12.70;99653.00;;;;4934591;28;87754;-64
2023/03/24 00:13:38;;;;;;;1.03;0.57;;;12.70;99.90;12.80;99647.00;;;;4932939;28;87858;-63
2023/03/24 00:16:12;;;;;;;0.63;0.60;;;12.70;99.90;12.80;99648.00;;;;4932855;28;88492;-62
2023/03/24 00:18:39;;;;;;;3.70;1.20;;;12.70;99.90;12.70;99645.00;;;;4931874;28;111975;-64
2023/03/24 00:21:07;;;;;;;0.80;0.67;;;12.70;99.90;12.70;99643.00;;;;4934341;28;87891;-63
2023/03/24 00:23:33;;;;;;;0.57;0.57;;;12.70;99.90;12.70;99648.00;;;;4933560;28;87309;-63
2023/03/24 00:26:07;;;;;;;0.70;0.70;;;12.70;99.90;12.70;99634.00;;;;4931627;28;88886;-63
2023/03/24 00:28:35;;;;;;;1.60;0.80;;;12.70;99.90;12.70;99633.00;;;;4927015;28;88424;-65
2023/03/24 00:31:04;;;;;;;0.97;0.60;;;12.70;99.90;12.70;99635.00;;;;4932854;28;88838;-64
2023/03/24 00:33:31;;;;;;;2.83;1.17;;;12.70;99.90;12.60;99633.00;;;;4930099;28;88137;-64
2023/03/24 00:35:58;;;;;;;0.73;0.73;;;12.70;99.90;12.70;99630.00;;;;4934335;28;88861;-65
2023/03/24 00:38:25;;;;;;;0.60;0.60;;;12.70;99.90;12.60;99632.00;;;;4929657;28;103695;-65
2023/03/24 00:40:51;;;;;;;0.97;0.87;;;12.70;99.90;12.70;99634.00;;;;4931500;28;88354;-65
2023/03/24 00:43:17;;;;;;;1.27;0.93;;;12.70;99.90;12.70;99623.00;;;;4932437;28;87757;-63
2023/03/24 00:45:46;;;;;;;1.00;0.83;;;12.70;99.90;12.70;99631.00;;;;4933258;28;87832;-65
2023/03/24 00:48:18;;;;;;;0.80;0.60;;;12.70;99.90;12.70;99624.00;;;;4930127;28;88096;-64
2023/03/24 00:50:49;;;;;;;0.73;0.63;;;12.70;99.90;12.70;99610.00;;;;4933323;28;87707;-65
2023/03/24 00:53:16;;;;;;;0.70;0.67;;;12.70;99.90;12.80;99618.00;;;;4931282;28;87823;-65
2023/03/24 00:55:48;;;;;;;0.50;0.50;;;12.70;99.90;12.80;99617.00;;;;4930693;28;88750;-64
2023/03/24 00:58:17;;;;;;;0.90;0.50;;;12.70;99.90;12.80;99606.00;;;;4934244;28;89852;-64
2023/03/24 01:00:45;;;;;;;1.47;0.90;;;12.80;99.90;12.80;99605.00;;;;4933370;28;87772;-64
2023/03/24 01:03:12;;;;;;;0.60;0.30;;;12.80;99.90;12.80;99595.00;;;;4933016;28;87688;-64
2023/03/24 01:05:38;;;;;;;1.43;1.03;;;13.10;99.90;12.80;99591.00;;;;4931059;28;88352;-64
2023/03/24 01:08:05;;;;;;;2.60;0.70;;;12.80;99.90;12.90;99582.00;;;;4932215;28;92040;-63
2023/03/24 01:10:49;;;;;;;1.20;0.80;;;12.80;99.90;12.90;99591.00;;;;4933575;28;87932;-63
2023/03/24 01:13:22;;;;;;;1.07;0.67;;;12.90;99.90;12.90;99586.00;;;;4931856;28;87207;-63
2023/03/24 01:15:49;;;;;;;1.50;0.93;;;12.90;99.90;12.90;99579.00;;;;4930819;28;88289;-64
2023/03/24 01:18:16;;;;;;;0.60;0.60;;;12.90;99.90;13.00;99578.00;;;;4928818;28;88151;-63
2023/03/24 01:20:45;;;;;;;1.23;0.50;;;12.90;99.90;13.00;99570.00;;;;4931948;28;88835;-63
2023/03/24 01:23:15;;;;;;;1.27;1.17;;;12.90;99.90;13.00;99562.00;;;;4930382;28;87962;-65
2023/03/24 01:25:44;;;;;;;1.57;1.47;;;12.90;99.90;13.00;99549.00;;;;4931965;28;87991;-63
2023/03/24 01:28:11;;;;;;;1.57;0.90;;;13.00;99.90;13.00;99563.00;;;;4931699;28;89555;-62
2023/03/24 01:30:38;;;;;;;0.77;0.57;;;13.00;99.90;13.00;99560.00;;;;4933399;28;91651;-63
2023/03/24 01:33:04;;;;;;;0.73;0.60;;;13.00;99.90;13.00;99560.00;;;;4933503;28;88057;-64
2023/03/24 01:35:30;;;;;;;1.47;0.80;;;13.00;99.90;13.00;99551.00;;;;4928928;28;88739;-63
2023/03/24 01:37:57;;;;;;;1.30;1.20;;;13.00;99.90;13.00;99543.00;;;;4928523;28;117878;-64
2023/03/24 01:40:31;;;;;;;1.17;0.80;;;13.00;99.90;13.00;99540.00;;;;4931719;28;104796;-64
2023/03/24 01:42:58;;;;;;;0.90;0.90;;;13.00;99.90;13.00;99548.00;;;;4931416;28;90574;-64
2023/03/24 01:45:57;;;;;;;0.50;0.43;;;13.00;99.90;13.00;99532.00;;;;4930080;28;104343;-64
2023/03/24 01:48:49;;;;;;;1.20;1.13;;;13.00;99.90;13.00;99535.00;;;;4882685;28;88842;-64
2023/03/24 01:51:22;;;;;;;0.60;0.60;;;13.00;99.90;13.00;99526.00;;;;4930352;28;87828;-64
2023/03/24 01:53:54;;;;;;;0.93;0.47;;;13.00;99.90;13.00;99525.00;;;;4932122;28;87820;-64
2023/03/24 01:56:20;;;;;;;1.40;0.47;;;13.00;99.90;13.00;99522.00;;;;4933014;28;88162;-64
2023/03/24 01:58:53;;;;;;;1.23;0.40;;;13.00;99.90;13.00;99519.00;;;;4929874;28;88827;-64
2023/03/24 02:01:20;;;;;;;1.17;0.77;;;13.00;99.90;13.00;99520.00;;;;4913364;28;102832;-64
2023/03/24 02:03:46;;;;;;;0.90;0.70;;;13.00;99.90;13.00;99504.00;;;;4914043;28;87454;-63
2023/03/24 02:06:13;;;;;;;0.50;0.50;;;12.90;99.90;13.00;99504.00;;;;4932273;28;113471;-63
2023/03/24 02:08:55;;;;;;;1.73;0.60;;;12.90;99.90;12.90;99500.00;;;;4931345;28;88732;-63
2023/03/24 02:11:23;;;;;;;0.53;0.40;;;12.90;99.90;12.90;99491.00;;;;4933265;28;88942;-64
2023/03/24 02:13:49;;;;;;;3.37;0.63;;;12.90;99.90;12.90;99500.00;;;;4908848;28;98795;-64
2023/03/24 02:16:45;;;;;;;0.90;0.80;;;12.90;99.90;12.90;99489.00;;;;4930247;28;88595;-64
2023/03/24 02:19:45;;;;;;;0.93;0.73;;;12.90;99.90;12.90;99497.00;;;;4930578;28;88680;-64
2023/03/24 02:22:43;;;;;;;1.53;0.80;;;12.90;99.90;12.90;99485.00;;;;4933793;28;88361;-64
2023/03/24 02:25:37;;;;;;;0.77;0.77;;;12.90;99.90;12.80;99482.00;;;;4933073;28;88000;-64
2023/03/24 02:28:39;;;;;;;0.53;0.50;;;12.90;99.90;12.80;99480.00;;;;4930165;28;88255;-63
2023/03/24 02:31:36;;;;;;;1.37;0.80;;;12.90;99.90;12.90;99483.00;;;;4909934;28;110172;-64
2023/03/24 02:34:48;;;;;;;0.60;0.60;;;12.90;99.90;12.80;99483.00;;;;4929876;28;88033;-64
2023/03/24 02:37:37;;;;;;;1.43;1.00;;;12.90;99.90;12.90;99488.00;;;;4931376;28;87988;-64
2023/03/24 02:40:32;;;;;;;1.20;0.70;;;12.90;99.90;12.90;99486.00;;;;4928597;28;89625;-64
2023/03/24 02:43:16;;;;;;;1.43;0.70;;;12.90;99.90;12.80;99479.00;;;;4930428;28;112745;-64
2023/03/24 02:46:02;;;;;;;1.20;1.00;;;12.90;99.90;12.80;99485.00;;;;4912831;28;87983;-64
2023/03/24 02:48:49;;;;;;;1.00;0.70;;;12.80;99.90;12.90;99478.00;;;;4930056;28;88050;-63
2023/03/24 02:51:51;;;;;;;1.10;1.00;;;12.90;99.90;12.90;99484.00;;;;4932865;28;88865;-65
2023/03/24 02:54:51;;;;;;;1.57;0.83;;;12.90;99.90;13.00;99486.00;;;;4933236;28;88088;-64
2023/03/24 02:57:51;;;;;;;1.03;1.00;;;12.90;99.90;13.00;99481.00;;;;4931969;28;87844;-64
2023/03/24 03:00:34;;;;;;;1.20;0.70;;;13.00;99.90;13.00;99487.00;;;;4917663;28;87048;-64
2023/03/24 03:03:08;;;;;;;0.43;0.43;;;13.00;99.90;13.10;99478.00;;;;4933224;28;89113;-64
2023/03/24 03:05:43;;;;;;;0.70;0.70;;;13.00;99.90;13.10;99488.00;;;;4916996;28;107313;-64
2023/03/24 03:08:13;;;;;;;0.93;0.70;;;13.10;99.90;13.20;99465.00;;;;4933305;28;98172;-65
2023/03/24 03:10:43;;;;;;;1.57;1.27;;;13.10;99.90;13.20;99470.00;;;;4916651;28;99738;-64
2023/03/24 03:13:29;;;;;;;0.80;0.80;;;13.20;99.90;13.30;99466.00;;;;4916939;28;88521;-64
2023/03/24 03:16:01;;;;;;;1.70;1.00;;;13.30;99.90;13.40;99465.00;;;;4913654;28;113578;-66
2023/03/24 03:18:38;;;;;;;0.85;0.82;;;13.30;99.90;13.40;99454.00;;;;4934233;28;104661;-65
2023/03/24 03:21:10;;;;;;;3.87;1.00;;;13.40;99.90;13.40;99451.00;;;;4909857;28;87977;-63
2023/03/24 03:23:46;;;;;;;1.53;0.90;;;13.40;99.90;13.50;99460.00;;;;4934545;28;88084;-64
2023/03/24 03:26:17;;;;;;;1.13;0.73;;;13.40;99.90;13.50;99469.00;;;;4914748;28;109322;-66
2023/03/24 03:28:48;;;;;;;2.03;1.03;;;13.40;99.90;13.60;99458.00;;;;4912737;28;95941;-63
2023/03/24 03:31:20;;;;;;;1.07;0.90;;;13.50;99.90;13.60;99458.00;;;;4909900;28;87888;-64
2023/03/24 03:33:53;;;;;;;1.23;0.88;;;13.50;99.90;13.50;99458.00;;;;4911947;28;89645;-64
2023/03/24 03:36:51;;;;;;;2.77;1.43;;;13.50;99.90;13.40;99463.00;;;;4934854;28;88782;-64
2023/03/24 03:39:46;;;;;;;1.37;1.20;;;13.40;99.90;13.20;99458.00;;;;4936054;28;87939;-64
2023/03/24 03:42:12;;;;;;;2.57;1.27;;;13.40;99.90;13.10;99458.00;;;;4931379;28;87900;-65
2023/03/24 03:44:38;;;;;;;0.80;0.80;;;13.20;99.90;13.00;99465.00;;;;4932563;28;117650;-64
2023/03/24 03:47:03;;;;;;;2.30;1.30;;;13.10;99.90;12.90;99468.00;;;;4913567;28;117750;-65
2023/03/24 03:49:30;;;;;;;1.13;0.87;;;12.90;99.90;12.70;99460.00;;;;4929525;28;110632;-65
2023/03/24 03:51:56;;;;;;;1.43;0.90;;;12.80;99.90;12.60;99468.00;;;;4933383;28;87139;-64
2023/03/24 03:54:24;;;;;;;1.63;1.17;;;12.70;99.90;12.50;99466.00;;;;4933822;28;88221;-66
2023/03/24 03:56:51;;;;;;;1.17;0.60;;;12.60;99.90;12.40;99462.00;;;;4930681;28;95543;-64
2023/03/24 03:59:29;;;;;;;1.60;1.17;;;12.40;99.90;12.20;99457.00;;;;4933428;28;88743;-65
2023/03/24 04:01:55;;;;;;;1.27;1.00;;;12.30;99.90;12.10;99455.00;;;;4930810;28;87665;-67
2023/03/24 04:04:43;;;;;;;1.63;0.80;;;12.20;99.90;12.00;99458.00;;;;4933837;28;97912;-66
2023/03/24 04:07:23;;;;;;;1.53;1.03;;;12.10;99.90;11.90;99448.00;;;;4930773;28;87993;-66
2023/03/24 04:10:27;;;;;;;4.23;1.30;;;12.00;99.90;11.80;99431.00;;;;4929104;28;103886;-67
2023/03/24 04:13:40;;;;;;;2.50;1.43;;;11.90;99.90;11.70;99432.00;;;;4935343;28;89489;-65
2023/03/24 04:16:44;;;;;;;1.73;1.43;;;11.80;99.90;11.70;99427.00;;;;4892011;28;110188;-65
2023/03/24 04:19:24;;;;;;;1.30;0.93;;;11.70;99.90;11.60;99438.00;;;;4931635;28;88024;-64
2023/03/24 04:22:24;;;;;;;2.63;1.17;;;11.70;99.90;11.60;99433.00;;;;4931031;28;87963;-66
2023/03/24 04:24:56;;;;;;;1.37;0.97;;;11.70;99.90;11.60;99435.00;;;;4929922;28;88010;-65
2023/03/24 04:27:38;;;;;;;1.60;1.00;;;11.70;99.90;11.60;99436.00;;;;4931919;28;91497;-64
2023/03/24 04:30:29;;;;;;;2.67;1.43;;;11.60;99.90;11.60;99431.00;;;;4911886;28;87940;-66
2023/03/24 04:33:07;;;;;;;1.93;1.77;;;11.60;99.90;11.50;99420.00;;;;4929622;28;88375;-66
2023/03/24 04:35:51;;;;;;;1.07;1.03;;;11.60;99.90;11.50;99418.00;;;;4913716;28;88019;-65
2023/03/24 04:38:24;;;;;;;1.40;1.30;;;11.60;99.90;11.50;99415.00;;;;4932222;28;87708;-66
2023/03/24 04:40:54;;;;;;;2.40;1.37;;;11.60;99.90;11.50;99419.00;;;;4933039;28;88095;-65
2023/03/24 04:43:25;;;;;;;1.53;1.00;;;11.60;99.90;11.50;99418.00;;;;4909561;28;87829;-65
2023/03/24 04:45:56;;;;;;;2.90;1.97;;;11.60;99.90;11.50;99415.00;;;;4910448;28;87356;-66
2023/03/24 04:48:24;;;;;;;4.43;1.23;;;11.60;99.90;11.50;99392.00;;;;4912825;28;88001;-66
2023/03/24 04:50:59;;;;;;;3.27;1.80;;;11.50;99.90;11.50;99394.00;;;;4932723;28;88610;-65
2023/03/24 04:53:26;;;;;;;1.37;1.27;;;11.50;99.90;11.50;99399.00;;;;4931028;28;88875;-65
2023/03/24 04:56:03;;;;;;;2.30;1.67;;;11.60;99.90;11.50;99402.00;;;;4932998;28;87846;-64
2023/03/24 04:58:29;;;;;;;0.93;0.87;;;11.60;99.90;11.50;99398.00;;;;4909710;28;87940;-65
2023/03/24 05:00:57;;;;;;;2.47;1.37;;;11.60;99.90;11.50;99398.00;;;;4931253;28;118173;-64
2023/03/24 05:03:24;;;;;;;2.57;1.17;;;11.60;99.90;11.50;99390.00;;;;4934214;28;88176;-66
2023/03/24 05:05:51;;;;;;;10.03;1.50;;;11.60;99.90;11.60;99396.00;;;;4932639;28;87989;-66
2023/03/24 05:08:18;;;;;;;1.37;1.27;;;11.60;99.90;11.60;99402.00;;;;4930851;28;88422;-65
2023/03/24 05:10:44;;;;;;;1.70;1.23;;;11.60;99.90;11.60;99392.00;;;;4929890;28;111852;-65
2023/03/24 05:13:14;;;;;;;2.03;1.10;;;11.60;99.90;11.60;99388.00;;;;4931372;28;87932;-64
2023/03/24 05:15:40;;;;;;;2.27;1.40;;;11.60;99.90;11.60;99387.00;;;;4933201;28;87747;-65
2023/03/24 05:18:06;;;;;;;1.80;1.60;;;11.60;99.90;11.60;99394.00;;;;4932393;28;90369;-65
2023/03/24 05:20:32;;;;;;;1.93;1.73;;;11.60;99.90;11.60;99383.00;;;;4931115;28;89631;-63
2023/03/24 05:22:58;;;;;;;3.50;2.10;;;11.60;99.90;11.70;99385.00;;;;4932673;28;105493;-63
2023/03/24 05:25:24;;;;;;;2.63;2.13;;;11.70;99.90;11.70;99371.00;;;;4933557;28;87824;-62
2023/03/24 05:27:49;;;;;;;4.80;2.70;;;11.70;99.90;11.70;99364.00;;;;4927762;28;118876;-65
2023/03/24 05:30:16;;;;;;;2.30;1.80;;;11.70;99.90;11.70;99376.00;;;;4928656;28;96521;-62
2023/03/24 05:32:41;;;;;;;3.13;1.70;;;11.70;99.90;11.70;99376.00;;;;4929402;28;87894;-63
2023/03/24 05:35:07;;;;;;;2.43;2.17;;;11.70;99.90;11.70;99372.00;;;;4932390;28;108309;-62
2023/03/24 05:37:37;;;;;;;3.33;2.13;;;11.70;99.90;11.70;99374.00;;;;4930951;28;90162;-63
2023/03/24 05:40:03;;;;;;;2.07;1.40;;;11.70;99.90;11.80;99369.00;;;;4928574;28;111205;-62
2023/03/24 05:42:29;;;;;;;4.40;1.97;;;11.80;99.90;11.80;99371.00;;;;4930109;28;98028;-62
2023/03/24 05:44:54;;;;;;;3.43;1.97;;;11.80;99.90;11.80;99362.00;;;;4928525;28;109141;-62
2023/03/24 05:47:20;;;;;;;5.30;2.43;;;11.80;99.90;11.80;99362.00;;;;4931635;28;118236;-63
2023/03/24 05:49:46;;;;;;;1.37;1.27;;;11.90;99.90;11.90;99347.00;;;;4927853;28;89052;-63
2023/03/24 05:52:24;;;;;;;1.70;1.57;;;11.80;99.90;11.80;99337.00;;;;4932092;28;107967;-65
2023/03/24 05:54:51;;;;;;;1.53;1.20;;;11.90;99.90;11.90;99348.00;;;;4932094;28;87983;-64
2023/03/24 05:57:18;;;;;;;2.60;1.10;;;11.90;99.90;11.90;99329.00;;;;4933303;28;88055;-63
2023/03/24 05:59:44;;;;;;;1.57;1.37;;;11.90;99.90;11.90;99328.00;;;;4931986;28;88601;-62
2023/03/24 06:02:10;;;;;;;3.00;1.50;;;12.00;99.90;12.00;99335.00;;;;4933438;28;87831;-61
2023/03/24 06:04:36;;;;;;;2.30;1.37;;;12.00;99.90;12.00;99327.00;;;;4931581;28;90093;-62
2023/03/24 06:07:02;;;;;;;0.90;0.90;;;12.00;99.90;12.00;99328.00;;;;4932307;28;90472;-64
2023/03/24 06:09:34;;;;;;;1.53;1.43;;;12.00;99.90;12.00;99334.00;;;;4931782;28;119063;-63
2023/03/24 06:12:05;;;;;;;1.03;0.93;;;12.00;99.90;12.00;99317.00;;;;4931432;28;87862;-63
2023/03/24 06:14:32;;;;;;;1.50;1.40;;;12.00;99.90;12.10;99318.00;;;;4928784;28;88234;-64
2023/03/24 06:16:58;;;;;;;0.80;0.80;;;12.10;99.90;12.10;99307.00;;;;4930103;28;89120;-63
2023/03/24 06:19:29;;;;;;;1.00;0.90;;;12.10;99.90;12.10;99300.00;;;;4931872;28;88498;-61
2023/03/24 06:22:01;;;;;;;1.17;0.97;;;12.10;99.90;12.20;99299.00;;;;4927374;28;87726;-62
2023/03/24 06:24:28;;;;;;;1.07;0.93;;;12.20;99.90;12.20;99296.00;;;;4930220;28;87041;-62
2023/03/24 06:26:57;;;;;;;1.03;0.97;;;12.20;99.90;12.30;99293.00;;;;4932508;28;108455;-64
2023/03/24 06:29:23;;;;;;;2.47;0.93;;;12.30;99.90;12.30;99286.00;;;;4933690;28;87966;-62
2023/03/24 06:31:49;;;;;;;1.10;1.00;;;12.30;99.90;12.40;99287.00;;;;4934074;28;104008;-62
2023/03/24 06:34:15;;;;;;;0.73;0.70;;;12.30;99.90;12.40;99278.00;;;;4934603;28;88062;-63
2023/03/24 06:36:41;;;;;;;1.73;1.40;;;12.40;99.90;12.40;99270.00;;;;4933138;28;88168;-64
2023/03/24 06:39:06;;;;;;;1.93;1.50;;;12.40;99.90;12.40;99275.00;;;;4933758;28;88793;-63
2023/03/24 06:41:38;;;;;;;1.60;1.20;;;12.40;99.90;12.50;99270.00;;;;4932212;28;87920;-64
2023/03/24 06:44:04;;;;;;;1.63;1.20;;;12.50;99.90;12.50;99272.00;;;;4934860;28;107216;-64
2023/03/24 06:46:30;;;;;;;1.40;1.13;;;12.50;99.90;12.60;99279.00;;;;4935523;28;87991;-63
2023/03/24 06:48:55;;;;;;;1.20;1.00;;;12.50;99.90;12.60;99277.00;;;;4931462;28;88490;-65
2023/03/24 06:51:21;;;;;;;1.07;0.97;;;12.60;99.90;12.60;99268.00;;;;4935820;28;87732;-64
2023/03/24 06:53:47;;;;;;;1.73;1.27;;;12.60;99.90;12.70;99273.00;;;;4934298;28;87945;-64
2023/03/24 06:56:16;;;;;;;1.60;1.20;;;12.60;99.90;12.70;99275.00;;;;4933120;28;118232;-63
2023/03/24 06:58:43;;;;;;;1.30;1.20;;;12.70;99.90;12.80;99268.00;;;;4931545;28;89557;-63
2023/03/24 07:01:08;;;;;;;1.50;1.20;;;12.70;99.90;12.80;99266.00;;;;4933746;28;87815;-63
2023/03/24 07:03:35;;;;;;;2.20;1.77;;;12.80;99.90;12.90;99272.00;;;;4934875;28;108142;-64
2023/03/24 07:06:01;;;;;;;1.80;1.57;;;12.80;99.90;12.90;99276.00;;;;4932063;28;88799;-64
2023/03/24 07:08:26;;;;;;;3.77;1.53;;;12.90;99.90;13.00;99276.00;;;;4933062;28;116671;-63
2023/03/24 07:10:52;;;;;;;1.53;1.17;;;12.90;99.90;13.00;99273.00;;;;4930715;28;110350;-64
2023/03/24 07:13:18;;;;;;;1.27;1.07;;;13.00;99.90;13.00;99273.00;;;;4933994;28;87009;-65
2023/03/24 07:15:44;;;;;;;0.93;0.93;;;13.00;99.90;13.00;99274.00;;;;4932963;28;89307;-65
2023/03/24 07:18:12;;;;;;;1.67;1.30;;;13.00;99.90;13.00;99268.00;;;;4932822;28;116717;-66
2023/03/24 07:20:39;;;;;;;1.10;1.00;;;13.00;99.90;13.00;99264.00;;;;4933722;28;89215;-64
2023/03/24 07:23:05;;;;;;;3.03;1.40;;;13.00;99.90;12.90;99254.00;;;;4935373;28;87729;-64
2023/03/24 07:25:31;;;;;;;1.53;1.40;;;12.90;99.90;12.90;99258.00;;;;4931158;28;118169;-65
2023/03/24 07:27:56;;;;;;;1.77;1.20;;;12.90;99.90;12.90;99264.00;;;;4933987;28;89447;-64
2023/03/24 07:30:24;;;;;;;1.50;0.90;;;12.90;99.90;13.00;99262.00;;;;4931458;28;109885;-64
2023/03/24 07:32:50;;;;;;;1.10;0.87;;;13.00;99.90;13.00;99249.00;;;;4929815;28;87938;-65
2023/03/24 07:35:16;;;;;;;1.20;0.93;;;13.00;99.90;13.10;99254.00;;;;4931619;28;102222;-64
2023/03/24 07:37:43;;;;;;;4.47;1.30;;;13.10;99.90;13.20;99253.00;;;;4934643;28;88767;-64
2023/03/24 07:40:13;;;;;;;2.37;1.63;;;13.10;99.90;13.30;99246.00;;;;4935070;28;87770;-64
2023/03/24 07:42:41;;;;;;;1.07;0.97;;;13.20;99.90;13.40;99238.00;;;;4932803;28;87774;-65
2023/03/24 07:45:10;;;;;;;1.27;1.17;;;13.30;99.90;13.40;99241.00;;;;4930884;28;89776;-64
2023/03/24 07:47:37;;;;;;;1.20;0.97;;;13.40;99.90;13.50;99243.00;;;;4933008;28;89314;-64
2023/03/24 07:50:09;;;;;;;2.28;1.35;;;13.40;99.90;13.60;99235.00;;;;4934290;28;92197;-64
2023/03/24 07:52:36;;;;;;;1.50;1.27;;;13.50;99.90;13.60;99233.00;;;;4934273;28;87765;-64
2023/03/24 07:55:02;;;;;;;1.10;0.90;;;13.60;99.90;13.70;99234.00;;;;4931697;28;89198;-64
2023/03/24 07:57:28;;;;;;;0.70;0.70;;;13.60;99.90;13.70;99233.00;;;;4932532;28;88559;-64
2023/03/24 07:59:53;;;;;;;2.03;1.33;;;13.60;99.90;13.70;99228.00;;;;4934438;28;110369;-64
2023/03/24 08:02:19;;;;;;;1.13;1.03;;;13.70;99.90;13.70;99227.00;;;;4932638;28;109464;-65
2023/03/24 08:04:45;;;;;;;1.67;1.13;;;13.70;99.90;13.70;99237.00;;;;4930094;28;118510;-63
2023/03/24 08:07:12;;;;;;;2.35;1.35;;;13.70;99.90;13.70;99232.00;;;;4930955;28;116150;-63
2023/03/24 08:09:39;;;;;;;1.45;1.13;;;14.00;99.90;13.70;99223.00;;;;4930113;28;88804;-65
2023/03/24 08:12:05;;;;;;;1.15;1.00;;;13.70;99.90;13.70;99222.00;;;;4933436;28;87926;-64
2023/03/24 08:14:31;;;;;;;0.90;0.90;;;13.70;99.90;13.70;99224.00;;;;4931293;28;97935;-65
2023/03/24 08:16:57;;;;;;;1.92;1.10;;;13.70;99.90;13.80;99232.00;;;;4933629;28;117461;-65
2023/03/24 08:19:22;;;;;;;1.17;1.13;;;13.70;99.90;13.90;99231.00;;;;4932188;28;109910;-65
2023/03/24 08:21:48;;;;;;;1.98;1.15;;;13.80;99.90;14.00;99231.00;;;;4930012;28;107936;-65
2023/03/24 08:24:14;;;;;;;0.50;0.50;;;13.90;99.90;14.10;99222.00;;;;4928701;28;117578;-65
2023/03/24 08:26:41;;;;;;;0.60;0.60;;;14.00;99.90;14.30;99232.00;;;;4929801;28;87693;-65
2023/03/24 08:29:07;;;;;;;1.50;1.10;;;14.10;99.90;14.40;99236.00;;;;4933519;28;88069;-66
2023/03/24 08:31:35;;;;;;;1.15;1.05;;;14.30;99.90;14.50;99221.00;;;;4929562;28;96125;-64
2023/03/24 08:34:03;;;;;;;2.25;1.10;;;14.40;99.90;14.60;99229.00;;;;4933395;28;89958;-64
2023/03/24 08:36:29;;;;;;;1.27;1.00;;;14.50;99.90;14.60;99241.00;;;;4928898;28;89578;-64
2023/03/24 08:38:55;;;;;;;2.65;0.82;;;14.50;99.90;14.60;99238.00;;;;4927491;28;110487;-65
2023/03/24 08:41:29;;;;;;;2.33;0.60;;;14.50;99.90;14.70;99250.00;;;;4928510;28;101954;-64
2023/03/24 08:43:55;;;;;;;1.35;1.25;;;14.60;99.90;14.70;99247.00;;;;4932627;28;88450;-65
2023/03/24 08:46:21;;;;;;;2.15;1.55;;;14.60;99.90;14.70;99237.00;;;;4932095;28;88643;-65
2023/03/24 08:48:47;;;;;;;3.65;0.85;;;14.60;99.90;14.70;99236.00;;;;4929051;28;98367;-65
2023/03/24 08:51:15;;;;;;;1.80;0.77;;;14.60;99.90;14.70;99244.00;;;;4931144;28;87275;-65
2023/03/24 08:53:42;;;;;;;0.80;0.75;;;14.70;99.90;14.70;99242.00;;;;4929782;28;88828;-65
2023/03/24 08:56:08;;;;;;;0.75;0.75;;;14.70;99.90;14.70;99250.00;;;;4933616;28;87868;-64
2023/03/24 08:58:34;;;;;;;1.63;1.17;;;14.70;99.90;14.70;99265.00;;;;4932692;28;88744;-65
2023/03/24 09:01:01;;;;;;;1.60;1.30;;;14.60;99.90;14.70;99257.00;;;;4931743;28;92996;-65
2023/03/24 09:03:27;;;;;;;1.05;0.80;;;14.60;99.90;14.60;99269.00;;;;4931466;28;89339;-65
2023/03/24 09:05:57;;;;;;;3.75;1.20;;;14.60;99.90;14.50;99265.00;;;;4932689;28;88794;-65
2023/03/24 09:08:24;;;;;;;1.35;0.93;;;14.60;99.90;14.50;99272.00;;;;4933617;28;88256;-65
2023/03/24 09:10:50;;;;;;;1.23;0.80;;;14.50;99.90;14.40;99281.00;;;;4934092;28;87875;-65
2023/03/24 09:13:17;;;;;;;1.58;1.27;;;14.40;99.90;14.40;99278.00;;;;4929865;28;88640;-66
2023/03/24 09:15:53;;;;;;;5.38;1.67;;;14.40;99.90;14.30;99287.00;;;;4931847;28;88575;-66
2023/03/24 09:18:20;;;;;;;1.90;1.17;;;14.30;99.90;14.30;99290.00;;;;4906184;28;87767;-64
2023/03/24 09:20:46;;;;;;;2.13;1.80;;;14.30;99.90;14.20;99281.00;;;;4934228;28;88445;-63
2023/03/24 09:23:12;;;;;;;0.98;0.88;;;14.20;99.90;14.10;99289.00;;;;4932996;28;89245;-64
2023/03/24 09:25:38;;;;;;;1.30;1.02;;;14.20;99.90;14.10;99291.00;;;;4930646;28;117440;-65
2023/03/24 09:28:05;;;;;;;2.60;1.17;;;14.10;99.90;14.10;99292.00;;;;4932479;28;109541;-65
2023/03/24 09:30:30;;;;;;;0.40;0.40;;;14.10;99.90;14.10;99290.00;;;;4932946;28;87896;-65
2023/03/24 09:32:57;;;;;;;1.00;0.85;;;14.10;99.90;14.10;99287.00;;;;4933041;28;88547;-64
2023/03/24 09:35:26;;;;;;;3.30;0.95;;;14.10;99.90;14.10;99287.00;;;;4933823;28;87996;-65
2023/03/24 09:37:52;;;;;;;0.40;0.40;;;14.10;99.90;14.20;99273.00;;;;4931048;28;88203;-65
2023/03/24 09:40:32;;;;;;;1.05;0.52;;;14.20;99.90;14.40;99276.00;;;;4934316;28;87087;-64
2023/03/24 09:43:04;;;;;;;0.85;0.85;;;14.30;99.90;14.60;99265.00;;;;4932203;28;109953;-64
2023/03/24 09:45:37;;;;;;;0.60;0.60;;;14.50;99.90;14.80;99278.00;;;;4934203;28;88972;-64
2023/03/24 09:48:13;;;;;;;0.77;0.63;;;14.60;99.90;15.00;99281.00;;;;4931017;28;104312;-63
2023/03/24 09:51:05;;;;;;;0.90;0.65;;;14.90;99.90;15.20;99283.00;;;;4911919;28;87810;-64
2023/03/24 09:53:42;;;;;;;1.25;0.85;;;15.10;99.90;15.40;99287.00;;;;4915657;28;89152;-64
2023/03/24 09:56:15;;;;;;;1.80;0.57;;;15.30;99.90;15.60;99271.00;;;;4927846;28;87938;-63
2023/03/24 09:58:45;;;;;;;1.35;1.05;;;15.50;99.90;15.80;99271.00;;;;4934609;28;87981;-63
2023/03/24 10:01:14;;;;;;;4.53;1.13;;;15.60;99.90;16.00;99270.00;;;;4934548;28;87787;-64
2023/03/24 10:03:41;;;;;;;0.98;0.93;;;15.80;99.90;16.20;99263.00;;;;4936416;28;88992;-65
2023/03/24 10:06:21;;;;;;;1.13;0.90;;;16.00;99.90;16.40;99251.00;;;;4936833;28;88294;-64
2023/03/24 10:09:22;;;;;;;1.73;0.82;;;16.20;99.90;16.50;99262.00;;;;4933541;28;87948;-64
2023/03/24 10:12:04;;;;;;;1.65;1.13;;;16.40;99.90;16.30;99262.00;;;;4931285;28;87789;-64
2023/03/24 10:15:00;;;;;;;1.92;1.17;;;16.30;99.90;16.20;99255.00;;;;4934002;28;89066;-64
2023/03/24 10:17:37;;;;;;;1.35;0.65;;;16.20;99.90;16.30;99261.00;;;;4934953;28;88774;-64
2023/03/24 10:20:33;;;;;;;1.40;1.05;;;16.20;99.90;16.50;99262.00;;;;4934287;28;94049;-63
2023/03/24 10:23:02;;;;;;;0.68;0.60;;;16.40;99.90;16.80;99262.00;;;;4935716;28;87794;-64
2023/03/24 10:26:08;;;;;;;2.90;1.13;;;16.60;99.90;17.00;99263.00;;;;4933208;28;117603;-64
2023/03/24 10:28:47;;;;;;;1.08;0.50;;;16.90;99.90;17.20;99249.00;;;;4933700;28;87759;-64
2023/03/24 10:31:16;;;;;;;0.90;0.70;;;17.10;99.90;17.40;99258.00;;;;4933332;28;87784;-63
2023/03/24 10:33:44;;;;;;;1.38;0.88;;;17.20;99.90;17.50;99259.00;;;;4933864;28;97615;-63
2023/03/24 10:36:19;;;;;;;1.00;0.90;;;17.30;99.90;17.60;99262.00;;;;4917306;28;117710;-64
2023/03/24 10:38:45;;;;;;;0.80;0.80;;;17.50;99.90;17.80;99273.00;;;;4934162;28;88889;-63
2023/03/24 10:41:18;;;;;;;1.13;0.82;;;17.90;99.90;17.90;99266.00;;;;4934806;28;107134;-63
2023/03/24 10:43:46;;;;;;;2.95;1.23;;;17.80;99.90;18.20;99256.00;;;;4932879;28;87810;-64
2023/03/24 10:46:15;;;;;;;0.98;0.80;;;18.00;99.60;18.30;99258.00;;;;4915627;28;88620;-64
2023/03/24 10:48:43;;;;;;;4.43;0.80;;;18.10;97.60;18.50;99258.00;;;;4916729;28;87842;-64
2023/03/24 10:51:32;;;;;;;1.13;0.85;;;18.30;95.80;18.70;99252.00;;;;4936547;28;87963;-65
2023/03/24 10:54:25;;;;;;;1.52;1.17;;;18.50;96.00;18.80;99262.00;;;;4936104;28;88089;-66
2023/03/24 10:56:57;;;;;;;1.05;0.68;;;18.70;95.90;18.90;99260.00;;;;4933744;28;87724;-65
2023/03/24 10:59:32;;;;;;;3.63;0.60;;;18.80;94.00;18.90;99264.00;;;;4936405;28;88899;-63
2023/03/24 11:02:18;;;;;;;1.38;0.55;;;18.80;94.40;18.90;99271.00;;;;4928117;28;104921;-64
2023/03/24 11:05:14;;;;;;;0.55;0.50;;;18.80;93.30;18.80;99261.00;;;;4930909;28;87759;-63
2023/03/24 11:07:48;;;;;;;1.00;0.85;;;18.80;92.70;18.80;99272.00;;;;4910590;28;89292;-63
2023/03/24 11:10:19;;;;;;;0.60;0.60;;;18.70;93.00;18.80;99275.00;;;;4934436;28;90661;-63
2023/03/24 11:12:54;;;;;;;0.65;0.65;;;18.60;92.60;18.80;99280.00;;;;4935191;28;87762;-63
2023/03/24 11:15:28;;;;;;;5.40;1.02;;;18.70;93.40;18.80;99277.00;;;;4933413;28;87628;-63